Terminal Aerodrome Forecast
Issued by NWS Omaha/Valley, NE

Current Version | Previous Version | Text Only | Print | Product List | Glossary On
Versions: 1 2 3 4 5 6 7 8 9 10 11 12 13 14 15 16 17 18 19 20 21 22 23 24 25 26 27 28 29 30 31 32 33 34
000
FTUS43 KOAX 100520
TAFOMA
TAF
KOMA 100520Z 1006/1106 13005KT P6SM OVC060
      TEMPO 1014/1017 4SM -SN OVC030
     FM101700 13012KT P6SM OVC035
     FM102100 14014KT P6SM SCT030 OVC070=

USA.gov is the U.S. government's official web portal to all federal, state and local government web resources and services.